createdAt,value
2016-02-20T00:00:44.464Z,31.96
2016-02-20T00:01:44.436Z,31.86
2016-02-20T00:02:44.439Z,32.24
2016-02-20T00:03:44.394Z,31.37
2016-02-20T00:04:44.397Z,31.76
2016-02-20T00:05:44.210Z,31.18
2016-02-20T00:06:44.353Z,30.89
2016-02-20T00:07:44.341Z,30.6
2016-02-20T00:08:44.311Z,30.89
2016-02-20T00:09:44.314Z,31.09
2016-02-20T00:10:44.286Z,31.47
2016-02-20T00:11:44.273Z,31.76
2016-02-20T00:12:44.244Z,31.47
2016-02-20T00:13:44.247Z,29.36
2016-02-20T00:14:44.219Z,30.42
2016-02-20T00:15:44.190Z,31.09
2016-02-20T00:16:44.177Z,31.37
2016-02-20T00:17:44.164Z,31.67
2016-02-20T00:18:44.136Z,31.68
2016-02-20T00:19:44.154Z,31.1
2016-02-20T00:20:44.110Z,31.49
2016-02-20T00:21:44.082Z,30.91
2016-02-20T00:22:44.085Z,32.07
2016-02-20T00:23:44.055Z,31.78
2016-02-20T00:24:44.043Z,30.42
2016-02-20T00:25:44.029Z,30.52
2016-02-20T00:26:44.001Z,30.91
2016-02-20T00:27:43.987Z,30.81
2016-02-20T00:28:43.976Z,31.1
2016-02-20T00:29:43.962Z,31.49
2016-02-20T00:30:43.939Z,31.49
2016-02-20T00:31:43.910Z,30.13
2016-02-20T00:32:43.913Z,30.42
2016-02-20T00:33:43.884Z,31.1
2016-02-20T00:34:43.872Z,31.1
2016-02-20T00:35:43.843Z,31.49
2016-02-20T00:36:43.845Z,31.2
2016-02-20T00:37:43.816Z,31.59
2016-02-20T00:38:43.788Z,31.29
2016-02-20T00:39:43.791Z,31.78
2016-02-20T00:40:43.763Z,30.81
2016-02-20T00:41:43.749Z,30.52
2016-02-20T00:42:43.736Z,30.42
2016-02-20T00:43:43.708Z,30.81
2016-02-20T00:44:43.695Z,31.01
2016-02-20T00:45:43.666Z,31.1
2016-02-20T00:46:43.654Z,31.39
2016-02-20T00:47:43.656Z,31.59
2016-02-20T00:48:43.628Z,31.87
2016-02-20T00:49:43.599Z,31.28
2016-02-20T00:50:43.679Z,31.09
2016-02-20T00:51:43.573Z,31.67
2016-02-20T00:52:43.560Z,31.28
2016-02-20T00:53:43.531Z,31.57
2016-02-20T00:54:43.518Z,31.28
2016-02-20T00:55:43.491Z,31.84
2016-02-20T00:56:43.477Z,32.23
2016-02-20T00:57:43.465Z,32.14
2016-02-20T00:58:43.451Z,32.52
2016-02-20T00:59:43.267Z,30.88
2016-02-20T01:00:43.409Z,31.65
2016-02-20T01:01:43.397Z,31.94
2016-02-20T01:02:43.415Z,31.26
2016-02-20T01:03:43.464Z,31.74
2016-02-20T01:04:43.343Z,32.23
2016-02-20T01:05:43.314Z,32.23
2016-02-20T01:06:43.300Z,32.52
2016-02-20T01:07:43.289Z,30.98
2016-02-20T01:08:43.259Z,31.63
2016-02-20T01:09:43.246Z,32.42
2016-02-20T01:10:43.234Z,32.62
2016-02-20T01:11:43.221Z,31.84
2016-02-20T01:12:43.192Z,32.23
2016-02-20T01:13:43.180Z,32.12
2016-02-20T01:14:43.167Z,32.12
2016-02-20T01:15:43.138Z,32.41
2016-02-20T01:16:43.124Z,32.51
2016-02-20T01:17:43.112Z,31.44
2016-02-20T01:18:43.084Z,31.74
2016-02-20T01:19:43.071Z,32.42
2016-02-20T01:20:43.041Z,32.33
2016-02-20T01:21:43.034Z,31.07
2016-02-20T01:22:43.005Z,31.26
2016-02-20T01:23:42.993Z,31.94
2016-02-20T01:24:42.980Z,31.84
2016-02-20T01:25:42.967Z,32.06
2016-02-20T01:26:42.937Z,32.06
2016-02-20T01:27:42.925Z,31.96
2016-02-20T01:28:42.928Z,30.89
2016-02-20T01:29:42.899Z,30.99
2016-02-20T01:30:42.870Z,31.47
2016-02-20T01:31:42.858Z,31.67
2016-02-20T01:32:42.829Z,31.96
2016-02-20T01:33:42.816Z,31.28
2016-02-20T01:34:42.803Z,30.79
2016-02-20T01:35:42.789Z,30.79
2016-02-20T01:36:42.761Z,31.09
2016-02-20T01:37:42.749Z,31.09
2016-02-20T01:38:42.736Z,31.18
2016-02-20T01:39:42.739Z,31.67
2016-02-20T01:40:42.695Z,31.67
2016-02-20T01:41:42.681Z,31.87
2016-02-20T01:42:42.669Z,31.1
2016-02-20T01:43:42.640Z,30.81
2016-02-20T01:44:42.627Z,30.41
2016-02-20T01:45:42.613Z,30.71
2016-02-20T01:46:42.601Z,31.01
2016-02-20T01:47:42.588Z,30.91
2016-02-20T01:48:42.575Z,31.2
2016-02-20T01:49:42.546Z,31.2
2016-02-20T01:50:42.518Z,31.2
2016-02-20T01:51:42.505Z,30.91
2016-02-20T01:52:42.492Z,31.1
2016-02-20T01:53:42.479Z,31.29
2016-02-20T01:54:42.451Z,30.91
2016-02-20T01:55:42.438Z,29.46
2016-02-20T01:56:42.425Z,30.32
2016-02-20T01:57:42.396Z,31.01
2016-02-20T01:58:42.399Z,31.1
2016-02-20T01:59:42.370Z,31.29
2016-02-20T02:00:42.357Z,31.39
2016-02-20T02:01:42.344Z,31.01
2016-02-20T02:02:42.317Z,30.81
2016-02-20T02:03:42.303Z,30.42
2016-02-20T02:04:42.287Z,30.42
2016-02-20T02:05:42.259Z,30.91
2016-02-20T02:06:42.246Z,31.76
2016-02-20T02:07:42.233Z,31.96
2016-02-20T02:08:42.219Z,30.41
2016-02-20T02:09:42.191Z,31.09
2016-02-20T02:10:42.178Z,31.76
2016-02-20T02:11:42.166Z,31.96
2016-02-20T02:12:42.137Z,31.18
2016-02-20T02:13:42.124Z,32.15
2016-02-20T02:14:42.111Z,31.86
2016-02-20T02:15:42.099Z,30.6
2016-02-20T02:16:42.069Z,31.07
2016-02-20T02:17:42.057Z,31.94
2016-02-20T02:18:41.871Z,31.74
2016-02-20T02:19:42.015Z,30.88
2016-02-20T02:20:42.033Z,31.94
2016-02-20T02:21:42.005Z,32.33
2016-02-20T02:22:41.976Z,30.98
2016-02-20T02:23:41.948Z,31.07
2016-02-20T02:24:41.935Z,32.52
2016-02-20T02:25:41.906Z,32.52
2016-02-20T02:26:41.893Z,31.36
2016-02-20T02:27:41.881Z,32.52
2016-02-20T02:28:41.851Z,32.42
2016-02-20T02:29:41.839Z,31.94
2016-02-20T02:30:41.826Z,32.33
2016-02-20T02:31:41.797Z,32.33
2016-02-20T02:32:41.784Z,31.84
2016-02-20T02:33:41.772Z,32.33
2016-02-20T02:34:41.759Z,32.04
2016-02-20T02:35:41.730Z,31.16
2016-02-20T02:36:41.717Z,31.84
2016-02-20T02:37:41.703Z,32.41
2016-02-20T02:38:41.675Z,32.23
2016-02-20T02:39:41.678Z,32.52
2016-02-20T02:40:41.633Z,31.56
2016-02-20T02:41:41.621Z,32.14
2016-02-20T02:42:41.608Z,32.42
2016-02-20T02:43:41.580Z,32.04
2016-02-20T02:44:41.567Z,31.07
2016-02-20T02:45:41.554Z,32.04
2016-02-20T02:46:41.525Z,32.04
2016-02-20T02:47:41.512Z,32.14
2016-02-20T02:48:41.499Z,32.24
2016-02-20T02:49:41.486Z,30.89
2016-02-20T02:50:41.457Z,30.99
2016-02-20T02:51:41.445Z,31.67
2016-02-20T02:52:41.432Z,31.96
2016-02-20T02:53:41.418Z,32.15
2016-02-20T02:54:41.391Z,30.79
2016-02-20T02:55:41.377Z,31.28
2016-02-20T02:56:41.365Z,31.28
2016-02-20T02:57:41.337Z,30.79
2016-02-20T02:58:41.323Z,30.99
2016-02-20T02:59:41.310Z,31.47
2016-02-20T03:00:41.298Z,31.78
2016-02-20T03:01:41.285Z,31.59
2016-02-20T03:02:41.256Z,31.68
2016-02-20T03:03:41.242Z,31.29
2016-02-20T03:04:41.214Z,30.81
2016-02-20T03:05:41.201Z,30.62
2016-02-20T03:06:41.188Z,31.01
2016-02-20T03:07:41.160Z,31.37
2016-02-20T03:08:41.147Z,31.68
2016-02-20T03:09:41.134Z,31.49
2016-02-20T03:10:41.121Z,30.91
2016-02-20T03:11:41.092Z,30.62
2016-02-20T03:12:41.080Z,31.1
2016-02-20T03:13:41.066Z,31.2
2016-02-20T03:14:41.054Z,31.29
2016-02-20T03:15:41.040Z,31.49
2016-02-20T03:16:41.013Z,30.42
2016-02-20T03:17:40.999Z,31.01
2016-02-20T03:18:40.971Z,30.23
2016-02-20T03:19:40.957Z,30.32
2016-02-20T03:20:40.944Z,31.01
2016-02-20T03:21:40.932Z,31.1
2016-02-20T03:22:40.903Z,31.29
2016-02-20T03:23:40.906Z,30.79
2016-02-20T03:24:40.878Z,30.79
2016-02-20T03:25:40.849Z,31.28
2016-02-20T03:26:40.836Z,31.86
2016-02-20T03:27:40.824Z,31.37
2016-02-20T03:28:40.810Z,30.11
2016-02-20T03:29:40.781Z,31.28
2016-02-20T03:30:40.769Z,31.96
2016-02-20T03:31:40.755Z,32.15
2016-02-20T03:32:40.726Z,30.89
2016-02-20T03:33:40.714Z,31.36
2016-02-20T03:34:40.701Z,32.14
2016-02-20T03:35:40.689Z,31.84
2016-02-20T03:36:40.660Z,31.74
2016-02-20T03:37:40.647Z,32.23
2016-02-20T03:38:40.650Z,32.04
2016-02-20T03:39:40.605Z,32.04
2016-02-20T03:40:40.593Z,32.33
2016-02-20T03:41:40.580Z,29.81
2016-02-20T03:42:40.551Z,32.04
2016-02-20T03:43:40.538Z,32.81
2016-02-20T03:44:40.509Z,31.74
2016-02-20T03:45:40.512Z,31.46
2016-02-20T03:46:40.483Z,32.14
2016-02-20T03:47:40.455Z,32.31
2016-02-20T03:48:40.458Z,31.16
2016-02-20T03:49:40.430Z,32.23
2016-02-20T03:50:40.400Z,32.23
2016-02-20T03:51:40.387Z,32.23
2016-02-20T03:52:40.375Z,32.91
2016-02-20T03:53:40.362Z,31.44
2016-02-20T03:54:40.333Z,32.04
2016-02-20T03:55:40.336Z,32.23
2016-02-20T03:56:40.151Z,32.33
2016-02-20T03:57:40.279Z,31.94
2016-02-20T03:58:40.265Z,32.23
2016-02-20T03:59:40.253Z,32.52
2016-02-20T04:00:40.224Z,31.07
2016-02-20T04:01:40.227Z,32.33
2016-02-20T04:02:40.199Z,31.94
2016-02-20T04:03:40.170Z,32.33
2016-02-20T04:04:40.173Z,32.04
2016-02-20T04:05:40.144Z,30.39
2016-02-20T04:06:40.131Z,31.74
2016-02-20T04:07:40.103Z,32.24
2016-02-20T04:08:40.090Z,31.18
2016-02-20T04:09:40.077Z,31.18
2016-02-20T04:10:40.064Z,31.76
2016-02-20T04:11:40.051Z,32.06
2016-02-20T04:12:40.006Z,31.76
2016-02-20T04:13:39.994Z,31.37
2016-02-20T04:14:39.981Z,30.89
2016-02-20T04:15:39.967Z,30.6
2016-02-20T04:16:39.955Z,30.81
2016-02-20T04:17:39.927Z,31.01
2016-02-20T04:18:39.914Z,30.99
2016-02-20T04:19:39.900Z,31.29
2016-02-20T04:20:39.872Z,31.29
2016-02-20T04:21:39.859Z,31.49
2016-02-20T04:22:39.846Z,31.2
2016-02-20T04:23:39.818Z,30.91
2016-02-20T04:24:39.836Z,31.29
2016-02-20T04:25:39.791Z,31.1
2016-02-20T04:26:39.779Z,31.1
2016-02-20T04:27:39.749Z,30.81
2016-02-20T04:28:39.738Z,30.04
2016-02-20T04:29:39.740Z,30.52
2016-02-20T04:30:39.712Z,30.81
2016-02-20T04:31:39.682Z,31.1
2016-02-20T04:32:39.670Z,31.1
2016-02-20T04:33:39.657Z,30.91
2016-02-20T04:34:39.644Z,30.71
2016-02-20T04:35:39.615Z,30.62
2016-02-20T04:36:39.603Z,31.01
2016-02-20T04:37:39.589Z,30.32
2016-02-20T04:38:39.577Z,30.52
2016-02-20T04:39:39.548Z,31.01
2016-02-20T04:40:39.535Z,30.62
2016-02-20T04:41:39.523Z,31.39
2016-02-20T04:42:39.494Z,31.1
2016-02-20T04:43:39.481Z,31.76
2016-02-20T04:44:39.468Z,30.41
2016-02-20T04:45:39.440Z,30.6
2016-02-20T04:46:39.426Z,30.99
2016-02-20T04:47:39.413Z,31.47
2016-02-20T04:48:39.401Z,31.67
2016-02-20T04:49:39.388Z,30.89
2016-02-20T04:50:39.359Z,31.86
2016-02-20T04:51:39.347Z,31.46
2016-02-20T04:52:39.317Z,31.76
2016-02-20T04:53:39.305Z,31.74
2016-02-20T04:54:39.291Z,32.04
2016-02-20T04:55:39.279Z,31.26
2016-02-20T04:56:39.266Z,31.16
2016-02-20T04:57:39.238Z,31.65
2016-02-20T04:58:39.208Z,32.04
2016-02-20T04:59:39.196Z,31.94
2016-02-20T05:00:39.183Z,30.88
2016-02-20T05:01:39.171Z,30.49
2016-02-20T05:02:39.141Z,31.36
2016-02-20T05:03:39.129Z,32.42
2016-02-20T05:04:39.116Z,32.04
2016-02-20T05:05:39.087Z,30.88
2016-02-20T05:06:39.074Z,31.94
2016-02-20T05:07:39.045Z,32.42
2016-02-20T05:08:39.032Z,31.74
2016-02-20T05:09:39.019Z,31.44
2016-02-20T05:10:39.006Z,31.83
2016-02-20T05:11:38.823Z,32.04
2016-02-20T05:12:38.965Z,32.12
2016-02-20T05:13:38.952Z,32.41
2016-02-20T05:14:38.924Z,32.41
2016-02-20T05:15:38.911Z,32.31
2016-02-20T05:16:38.898Z,32.52
2016-02-20T05:17:38.869Z,30.76
2016-02-20T05:18:38.856Z,31.36
2016-02-20T05:19:38.844Z,32.91
2016-02-20T05:20:38.814Z,32.33
2016-02-20T05:21:38.803Z,32.04
2016-02-20T05:22:38.789Z,32.23
2016-02-20T05:23:38.760Z,32.04
2016-02-20T05:24:38.748Z,31.46
2016-02-20T05:25:38.735Z,30.98
2016-02-20T05:26:38.722Z,31.36
2016-02-20T05:27:38.693Z,31.18
2016-02-20T05:28:38.680Z,30.6
2016-02-20T05:29:38.667Z,31.67
2016-02-20T05:30:38.638Z,32.34
2016-02-20T05:31:38.626Z,32.34
2016-02-20T05:32:38.613Z,31.37
2016-02-20T05:33:38.599Z,31.18
2016-02-20T05:34:38.587Z,32.06
2016-02-20T05:35:38.558Z,32.34
2016-02-20T05:36:38.545Z,31.18
2016-02-20T05:37:38.517Z,30.6
2016-02-20T05:38:38.504Z,30.79
2016-02-20T05:39:38.491Z,30.62
2016-02-20T05:40:38.478Z,30.62
2016-02-20T05:41:38.449Z,30.81
2016-02-20T05:42:38.437Z,30.23
2016-02-20T05:43:38.408Z,31.49
2016-02-20T05:44:38.395Z,31.78
2016-02-20T05:45:38.382Z,31.29
2016-02-20T05:46:38.353Z,31.1
2016-02-20T05:47:38.340Z,31.78
2016-02-20T05:48:38.327Z,31.1
2016-02-20T05:49:38.315Z,31.39
2016-02-20T05:50:38.302Z,31.68
2016-02-20T05:51:38.273Z,32.36
2016-02-20T05:52:38.261Z,29.64
2016-02-20T05:53:38.247Z,29.55
2016-02-20T05:54:38.219Z,31.68
2016-02-20T05:55:38.425Z,32.17
2016-02-20T05:56:38.194Z,30.62
2016-02-20T05:57:38.289Z,31.68
2016-02-20T05:58:38.151Z,32.17
2016-02-20T05:59:38.138Z,30.91
2016-02-20T06:00:38.125Z,32.06
2016-02-20T06:01:38.112Z,31.09
2016-02-20T06:02:38.085Z,31.28
2016-02-20T06:03:38.555Z,31.37
2016-02-20T06:04:38.058Z,31.47
2016-02-20T06:05:38.029Z,31.76
2016-02-20T06:06:38.016Z,30.51
2016-02-20T06:07:38.004Z,31.16
2016-02-20T06:08:37.975Z,32.42
2016-02-20T06:09:37.962Z,32.04
2016-02-20T06:10:37.949Z,31.74
2016-02-20T06:11:37.936Z,31.74
2016-02-20T06:12:37.908Z,32.04
2016-02-20T06:13:37.895Z,32.14
2016-02-20T06:14:37.867Z,32.42
2016-02-20T06:15:37.869Z,32.71
2016-02-20T06:16:37.840Z,32.33
2016-02-20T06:17:37.812Z,32.23
2016-02-20T06:18:37.798Z,31.46
2016-02-20T06:19:37.786Z,32.42
2016-02-20T06:20:37.773Z,32.33
2016-02-20T06:21:37.760Z,32.52
2016-02-20T06:22:37.747Z,32.71
2016-02-20T06:23:37.719Z,32.52
2016-02-20T06:24:37.690Z,32.51
2016-02-20T06:25:37.677Z,32.99
2016-02-20T06:26:37.649Z,32.81
2016-02-20T06:27:37.636Z,32.04
2016-02-20T06:28:37.622Z,32.81
2016-02-20T06:29:37.610Z,33.01
2016-02-20T06:30:37.581Z,32.41
2016-02-20T06:31:37.569Z,32.81
2016-02-20T06:32:37.555Z,32.89
2016-02-20T06:33:37.527Z,31.05
2016-02-20T06:34:37.513Z,32.02
2016-02-20T06:35:37.501Z,32.51
2016-02-20T06:36:37.471Z,32.51
2016-02-20T06:37:37.460Z,33.09
2016-02-20T06:38:37.431Z,32.51
2016-02-20T06:39:37.418Z,32.31
2016-02-20T06:40:37.404Z,32.79
2016-02-20T06:41:37.392Z,32.31
2016-02-20T06:42:37.363Z,32.62
2016-02-20T06:43:37.351Z,31.46
2016-02-20T06:44:37.338Z,31.74
2016-02-20T06:45:37.309Z,32.62
2016-02-20T06:46:37.311Z,32.42
2016-02-20T06:47:37.283Z,32.42
2016-02-20T06:48:37.270Z,32.23
2016-02-20T06:49:37.242Z,32.14
2016-02-20T06:50:37.228Z,32.44
2016-02-20T06:51:37.200Z,32.15
2016-02-20T06:52:37.187Z,32.24
2016-02-20T06:53:37.174Z,32.44
2016-02-20T06:54:37.162Z,32.06
2016-02-20T06:55:37.148Z,32.24
2016-02-20T06:56:37.120Z,32.15
2016-02-20T06:57:37.107Z,32.24
2016-02-20T06:58:37.078Z,31.18
2016-02-20T06:59:37.066Z,30.41
2016-02-20T07:00:37.052Z,32.64
2016-02-20T07:01:37.039Z,31.28
2016-02-20T07:02:37.027Z,31.2
2016-02-20T07:03:36.998Z,31.49
2016-02-20T07:04:36.985Z,31.39
2016-02-20T07:05:36.957Z,31.39
2016-02-20T07:06:36.943Z,30.91
2016-02-20T07:07:36.930Z,31.1
2016-02-20T07:08:36.917Z,31.78
2016-02-20T07:09:36.890Z,31.28
2016-02-20T07:10:36.876Z,30.42
2016-02-20T07:11:36.862Z,31.2
2016-02-20T07:12:36.851Z,31.2
2016-02-20T07:13:36.821Z,31.97
2016-02-20T07:14:36.809Z,31.47
2016-02-20T07:15:36.781Z,32.17
2016-02-20T07:16:36.783Z,32.44
2016-02-20T07:17:36.754Z,31.67
2016-02-20T07:18:36.741Z,31.86
2016-02-20T07:19:36.713Z,32.24
2016-02-20T07:20:36.700Z,31.96
2016-02-20T07:21:36.686Z,32.34
2016-02-20T07:22:36.674Z,32.44
2016-02-20T07:23:36.645Z,31.96
2016-02-20T07:24:36.633Z,32.34
2016-02-20T07:25:36.620Z,31.28
2016-02-20T07:26:36.606Z,31.37
2016-02-20T07:27:36.578Z,31.74
2016-02-20T07:28:36.565Z,32.33
2016-02-20T07:29:36.537Z,32.52
2016-02-20T07:30:36.524Z,32.52
2016-02-20T07:31:36.510Z,32.23
2016-02-20T07:32:36.497Z,32.81
2016-02-20T07:33:36.469Z,32.33
2016-02-20T07:34:36.441Z,32.42
2016-02-20T07:35:36.427Z,32.04
2016-02-20T07:36:36.416Z,32.04
2016-02-20T07:37:36.386Z,32.33
2016-02-20T07:38:36.373Z,32.62
2016-02-20T07:39:36.360Z,33.01
2016-02-20T07:40:36.348Z,32.33
2016-02-20T07:41:36.740Z,32.81
2016-02-20T07:42:36.306Z,32.71
2016-02-20T07:43:36.293Z,32.42
2016-02-20T07:44:36.280Z,33.1
2016-02-20T07:45:36.251Z,32.99
2016-02-20T07:46:36.239Z,32.42
2016-02-20T07:47:36.210Z,32.52
2016-02-20T07:48:36.197Z,32.52
2016-02-20T07:49:36.184Z,32.33
2016-02-20T07:50:36.171Z,32.33
2016-02-20T07:51:36.142Z,32.6
2016-02-20T07:52:36.145Z,32.23
2016-02-20T07:53:36.100Z,31.05
2016-02-20T07:54:36.104Z,32.02
2016-02-20T07:55:36.075Z,32.51
2016-02-20T07:56:36.078Z,32.51
2016-02-20T07:57:36.050Z,32.7
2016-02-20T07:58:36.021Z,32.6
2016-02-20T07:59:36.008Z,32.42
2016-02-20T08:00:35.979Z,32.7
2016-02-20T08:01:35.982Z,32.51
2016-02-20T08:02:35.953Z,32.89
2016-02-20T08:03:35.940Z,32.41
2016-02-20T08:04:35.913Z,33.09
2016-02-20T08:05:35.899Z,32.6
2016-02-20T08:06:35.871Z,31.63
2016-02-20T08:07:35.874Z,30.98
2016-02-20T08:08:35.844Z,32.71
2016-02-20T08:09:35.815Z,32.62
2016-02-20T08:10:35.819Z,32.52
2016-02-20T08:11:35.790Z,32.52
2016-02-20T08:12:35.762Z,32.23
2016-02-20T08:13:35.748Z,32.23
2016-02-20T08:14:35.735Z,32.33
2016-02-20T08:15:35.723Z,32.54
2016-02-20T08:16:35.694Z,32.54
2016-02-20T08:17:35.698Z,32.34
2016-02-20T08:18:35.668Z,32.44
2016-02-20T08:19:35.639Z,32.44
2016-02-20T08:20:35.626Z,32.34
2016-02-20T08:21:35.614Z,31.47
2016-02-20T08:22:35.601Z,31.96
2016-02-20T08:23:35.588Z,30.79
2016-02-20T08:24:35.559Z,31.67
2016-02-20T08:25:35.547Z,31.28
2016-02-20T08:26:35.517Z,31.39
2016-02-20T08:27:35.506Z,31.28
2016-02-20T08:28:35.492Z,31.1
2016-02-20T08:29:35.463Z,31.1
2016-02-20T08:30:35.450Z,31.1
2016-02-20T08:31:35.438Z,31.2
2016-02-20T08:32:35.425Z,31.49
2016-02-20T08:33:35.443Z,31.1
2016-02-20T08:34:35.383Z,31.29
2016-02-20T08:35:35.371Z,31.78
2016-02-20T08:36:35.341Z,30.79
2016-02-20T08:37:35.330Z,31.47
2016-02-20T08:38:35.314Z,31.76
2016-02-20T08:39:35.290Z,31.96
2016-02-20T08:40:35.251Z,32.06
2016-02-20T08:41:35.242Z,31.96
2016-02-20T08:42:35.202Z,32.06
2016-02-20T08:43:35.179Z,32.44
2016-02-20T08:44:35.146Z,32.44
2016-02-20T08:45:35.129Z,32.14
2016-02-20T08:46:35.112Z,32.44
2016-02-20T08:47:35.079Z,32.42
2016-02-20T08:48:35.062Z,32.23
2016-02-20T08:49:35.048Z,32.06
2016-02-20T08:50:35.018Z,32.42
2016-02-20T08:51:35.003Z,32.81
2016-02-20T08:52:34.973Z,32.23
2016-02-20T08:53:34.960Z,31.74
2016-02-20T08:54:34.946Z,31.36
2016-02-20T08:55:34.932Z,32.04
2016-02-20T08:56:34.904Z,32.52
2016-02-20T08:57:34.890Z,32.71
2016-02-20T08:58:34.877Z,32.62
2016-02-20T08:59:34.849Z,32.33
2016-02-20T09:00:34.851Z,32.42
2016-02-20T09:01:34.821Z,32.91
2016-02-20T09:02:34.793Z,32.62
2016-02-20T09:03:34.779Z,32.52
2016-02-20T09:04:34.767Z,33.29
2016-02-20T09:05:34.738Z,32.91
2016-02-20T09:06:34.725Z,31.94
2016-02-20T09:07:34.712Z,31.74
2016-02-20T09:08:34.700Z,32.52
2016-02-20T09:09:34.670Z,31.94
2016-02-20T09:10:34.658Z,31.94
2016-02-20T09:11:34.630Z,32.33
2016-02-20T09:12:34.616Z,32.99
2016-02-20T09:13:34.602Z,32.71
2016-02-20T09:14:34.591Z,32.42
2016-02-20T09:15:34.624Z,32.52
2016-02-20T09:16:34.549Z,32.71
2016-02-20T09:17:34.551Z,33.01
2016-02-20T09:18:34.507Z,32.33
2016-02-20T09:19:34.494Z,32.81
2016-02-20T09:20:34.481Z,33.01
2016-02-20T09:21:34.468Z,32.42
2016-02-20T09:22:34.471Z,33.01
2016-02-20T09:23:34.426Z,33.01
2016-02-20T09:24:34.399Z,31.56
2016-02-20T09:25:34.385Z,31.65
2016-02-20T09:26:34.372Z,33.01
2016-02-20T09:27:34.344Z,33.01
2016-02-20T09:28:34.331Z,33.01
2016-02-20T09:29:34.318Z,32.52
2016-02-20T09:30:34.306Z,32.62
2016-02-20T09:31:34.276Z,32.62
2016-02-20T09:32:34.264Z,32.42
2016-02-20T09:33:34.234Z,32.62
2016-02-20T09:34:34.237Z,32.91
2016-02-20T09:35:34.225Z,32.14
2016-02-20T09:36:34.197Z,32.62
2016-02-20T09:37:34.167Z,32.71
2016-02-20T09:38:34.155Z,31.94
2016-02-20T09:39:33.986Z,31.36
2016-02-20T09:40:34.113Z,32.42
2016-02-20T09:41:34.100Z,32.71
2016-02-20T09:42:34.088Z,32.52
2016-02-20T09:43:34.074Z,32.89
2016-02-20T09:44:34.046Z,32.42
2016-02-20T09:45:34.033Z,32.81
2016-02-20T09:46:33.848Z,32.89
2016-02-20T09:47:33.991Z,32.42
2016-02-20T09:48:33.979Z,32.62
2016-02-20T09:49:33.949Z,33.29
2016-02-20T09:50:33.937Z,32.33
2016-02-20T09:51:33.924Z,32.33
2016-02-20T09:52:33.911Z,31.84
2016-02-20T09:53:33.882Z,31.36
2016-02-20T09:54:33.870Z,32.81
2016-02-20T09:55:33.841Z,32.71
2016-02-20T09:56:33.828Z,32.62
2016-02-20T09:57:33.815Z,32.33
2016-02-20T09:58:33.787Z,32.42
2016-02-20T09:59:33.773Z,32.62
2016-02-20T10:00:33.762Z,32.33
2016-02-20T10:01:33.732Z,32.71
2016-02-20T10:02:33.720Z,33.1
2016-02-20T10:03:33.707Z,32.33
2016-02-20T10:04:33.756Z,32.23
2016-02-20T10:05:33.681Z,32.62
2016-02-20T10:06:33.652Z,32.52
2016-02-20T10:07:33.623Z,32.42
2016-02-20T10:08:33.610Z,32.62
2016-02-20T10:09:33.598Z,32.51
2016-02-20T10:10:33.600Z,32.23
2016-02-20T10:11:33.556Z,32.79
2016-02-20T10:12:33.544Z,32.62
2016-02-20T10:13:33.546Z,32.33
2016-02-20T10:14:33.517Z,31.26
2016-02-20T10:15:33.488Z,31.26
2016-02-20T10:16:33.460Z,32.33
2016-02-20T10:17:33.463Z,32.42
2016-02-20T10:18:33.435Z,32.51
2016-02-20T10:19:33.422Z,32.91
2016-02-20T10:20:33.408Z,32.71
2016-02-20T10:21:33.379Z,32.23
2016-02-20T10:22:33.367Z,32.42
2016-02-20T10:23:33.338Z,33.01
2016-02-20T10:24:33.325Z,32.81
2016-02-20T10:25:33.328Z,32.33
2016-02-20T10:26:33.284Z,32.62
2016-02-20T10:27:33.287Z,32.91
2016-02-20T10:28:33.258Z,32.62
2016-02-20T10:29:33.260Z,32.21
2016-02-20T10:30:33.217Z,32.91
2016-02-20T10:31:33.204Z,32.91
2016-02-20T10:32:33.190Z,31.56
2016-02-20T10:33:33.178Z,31.56
2016-02-20T10:34:33.148Z,32.23
2016-02-20T10:35:33.120Z,32.23
2016-02-20T10:36:33.108Z,32.62
2016-02-20T10:37:33.095Z,32.33
2016-02-20T10:38:33.066Z,32.33
2016-02-20T10:39:33.053Z,32.33
2016-02-20T10:40:33.040Z,32.52
2016-02-20T10:41:33.028Z,32.23
2016-02-20T10:42:33.014Z,32.42
2016-02-20T10:43:32.986Z,32.23
2016-02-20T10:44:32.973Z,32.44
2016-02-20T10:45:32.960Z,31.96
2016-02-20T10:46:32.931Z,30.99
2016-02-20T10:47:32.919Z,30.89
2016-02-20T10:48:32.890Z,31.28
2016-02-20T10:49:32.893Z,31.96
2016-02-20T10:50:32.864Z,31.76
2016-02-20T10:51:32.694Z,31.86
2016-02-20T10:52:32.822Z,31.87
2016-02-20T10:53:32.809Z,31.68
2016-02-20T10:54:32.796Z,31.87
2016-02-20T10:55:32.784Z,31.68
2016-02-20T10:56:32.755Z,31.68
2016-02-20T10:57:32.743Z,31.68
2016-02-20T10:58:32.792Z,32.17
2016-02-20T10:59:32.715Z,31.78
2016-02-20T11:00:32.734Z,32.17
2016-02-20T11:01:32.675Z,31.2
2016-02-20T11:02:32.662Z,31.68
2016-02-20T11:03:32.759Z,32.15
2016-02-20T11:04:32.621Z,32.24
2016-02-20T11:05:32.607Z,31.37
2016-02-20T11:06:32.579Z,32.06
2016-02-20T11:07:32.566Z,32.15
2016-02-20T11:08:32.553Z,31.86
2016-02-20T11:09:32.384Z,31.28
2016-02-20T11:10:32.511Z,31.18
2016-02-20T11:11:32.515Z,31.67
2016-02-20T11:12:32.486Z,32.06
2016-02-20T11:13:32.458Z,32.15
2016-02-20T11:14:32.445Z,32.14
2016-02-20T11:15:32.431Z,32.44
2016-02-20T11:16:32.419Z,32.44
2016-02-20T11:17:32.390Z,32.42
2016-02-20T11:18:32.377Z,32.54
2016-02-20T11:19:32.208Z,32.54
2016-02-20T11:20:32.336Z,32.15
2016-02-20T11:21:32.322Z,32.15
2016-02-20T11:22:32.310Z,31.09
2016-02-20T11:23:32.278Z,31.36
2016-02-20T11:24:32.281Z,31.56
2016-02-20T11:25:32.252Z,31.94
2016-02-20T11:26:32.224Z,32.04
2016-02-20T11:27:32.211Z,32.33
2016-02-20T11:28:32.182Z,32.33
2016-02-20T11:29:32.169Z,32.42
2016-02-20T11:30:32.157Z,32.14
2016-02-20T11:31:32.144Z,32.33
2016-02-20T11:32:32.131Z,32.33
2016-02-20T11:33:32.102Z,32.42
2016-02-20T11:34:32.090Z,31.94
2016-02-20T11:35:32.060Z,32.52
2016-02-20T11:36:32.047Z,32.71
2016-02-20T11:37:32.050Z,32.42
2016-02-20T11:38:32.022Z,32.52
2016-02-20T11:39:31.993Z,32.52
2016-02-20T11:40:31.981Z,32.91
2016-02-20T11:41:31.952Z,32.14
2016-02-20T11:42:32.017Z,32.33
2016-02-20T11:43:31.926Z,32.33
2016-02-20T11:44:31.914Z,32.42
2016-02-20T11:45:31.884Z,32.52
2016-02-20T11:46:31.886Z,32.33
2016-02-20T11:47:31.889Z,31.16
2016-02-20T11:48:31.830Z,31.16
2016-02-20T11:49:31.833Z,31.84
2016-02-20T11:50:31.945Z,32.14
2016-02-20T11:51:31.775Z,32.52
2016-02-20T11:52:31.778Z,32.81
2016-02-20T11:53:31.813Z,32.71
2016-02-20T11:54:31.861Z,32.04
2016-02-20T11:55:31.724Z,32.33
2016-02-20T11:56:31.695Z,32.52
2016-02-20T11:57:31.682Z,32.81
2016-02-20T11:58:31.669Z,32.33
2016-02-20T11:59:31.640Z,32.04
2016-02-20T12:00:31.627Z,32.23
2016-02-20T12:01:31.599Z,32.33
2016-02-20T12:02:31.602Z,32.42
2016-02-20T12:03:31.573Z,32.52
2016-02-20T12:04:31.560Z,32.52
2016-02-20T12:05:31.548Z,32.23
2016-02-20T12:06:31.519Z,31.07
2016-02-20T12:07:31.507Z,31.84
2016-02-20T12:08:31.493Z,32.04
2016-02-20T12:09:31.465Z,31.94
2016-02-20T12:10:31.452Z,32.23
2016-02-20T12:11:31.423Z,32.04
2016-02-20T12:12:31.409Z,32.23
2016-02-20T12:13:31.397Z,32.42
2016-02-20T12:14:31.369Z,33.01
2016-02-20T12:15:31.356Z,32.81
2016-02-20T12:16:31.327Z,32.42
2016-02-20T12:17:31.331Z,32.14
2016-02-20T12:18:31.300Z,32.33
2016-02-20T12:19:31.289Z,32.42
2016-02-20T12:20:31.275Z,32.81
2016-02-20T12:21:31.246Z,32.14
2016-02-20T12:22:31.233Z,31.26
2016-02-20T12:23:31.221Z,31.16
2016-02-20T12:24:31.192Z,32.14
2016-02-20T12:25:31.195Z,32.04
2016-02-20T12:26:31.167Z,32.33
2016-02-20T12:27:31.138Z,32.52
2016-02-20T12:28:31.125Z,32.23
2016-02-20T12:29:31.112Z,32.52
2016-02-20T12:30:31.099Z,32.42
2016-02-20T12:31:31.070Z,32.33
2016-02-20T12:32:31.057Z,32.14
2016-02-20T12:33:31.029Z,32.42
2016-02-20T12:34:31.032Z,32.42
2016-02-20T12:35:31.004Z,32.33
2016-02-20T12:36:31.194Z,32.14
2016-02-20T12:37:30.962Z,32.04
2016-02-20T12:38:30.949Z,32.42
2016-02-20T12:39:30.937Z,32.23
2016-02-20T12:40:30.907Z,32.62
2016-02-20T12:41:30.910Z,32.42
2016-02-20T12:42:30.881Z,32.14
2016-02-20T12:43:30.853Z,32.33
2016-02-20T12:44:30.840Z,32.33
2016-02-20T12:45:30.828Z,32.42
2016-02-20T12:46:30.798Z,32.52
2016-02-20T12:47:30.801Z,31.94
2016-02-20T12:48:30.772Z,31.36
2016-02-20T12:49:30.759Z,31.26
2016-02-20T12:50:30.762Z,31.74
2016-02-20T12:51:30.719Z,31.74
2016-02-20T12:52:30.705Z,32.23
2016-02-20T12:53:30.677Z,32.33
2016-02-20T12:54:30.680Z,32.33